Tiempo atmosférico en la estación meteorológica de Ainsa, Huesca (610 m.)



Fecha
DESCASC
Temp. máxima en grados centígrados (hora)
DESCASC
Temp. mínima en grados centígrados (hora)
DESCASC
Temp. media en grados centígrados
DESCASC
Racha de viento máxima en m/sg (hora)
DESCASC
Velocidad máxima media en intervalos de 10 minutos(hora)
DESCASC
Precipitaciones diarias en mm
DESCASC
Precipitaciones de 00:00 a 06:00 en mm
DESCASC
Precipitaciones de 06:00 a 12:00 en mm
DESCASC
Precipitaciones de 12:00 a 18:00 en mm
DESCASC
Precipitaciones de 18:00 a 24:00 en mm
DESCASC
16-06-2019 27.9 (17:00) 9.8 (07:10) 18.8 6.67 (16:00) 4.72 (19:50) 0 0 0 0 0
15-06-2019 26.8 (18:40) 13 (07:10) 19.9 9.44 (19:30) 6.39 (19:30) 0 0 0 0 0
14-06-2019 25.7 (13:00) 12.9 (08:10) 19.3 10.83 (15:00) 6.67 (15:00) 0.6 0 0 0.6 0
13-06-2019 25.8 (17:40) 7.3 (00:00) 16.5 13.06 (20:00) 8.06 (20:00) 0 0 0 0 0
12-06-2019 21.2 (20:20) 4.3 (00:00) 12.8 8.33 (16:50) 5 (16:50) 0 0 0 0 0
11-06-2019 17 (16:40) 9.4 (00:00) 13.2 11.11 (01:30) 6.67 (01:30) 4.6 3.4 0.8 0.4 0
10-06-2019 25 (17:00) 13.8 (00:00) 19.4 10.83 (17:50) 7.5 (13:40) 0.2 0.2 0 0 0
09-06-2019 27.6 (15:40) 13.7 (00:00) 20.7 6.67 (18:10) 4.44 (19:00) 0 0 0 0 0
08-06-2019 26 (16:50) 7.1 (00:00) 16.5 8.06 (18:30) 6.11 (18:30) 0 0 0 0 0
07-06-2019 22.2 (16:10) 12.7 (00:00) 17.5 9.72 (19:00) 6.94 (17:40) 1.6 0 1.6 0 0
06-06-2019 22.7 (16:20) 8.1 (00:00) 15.4 13.06 (18:30) 8.61 (18:30) 0 0 0 0 0
05-06-2019 21.8 (00:00) 11.6 (00:00) 16.7 13.89 (15:10) 9.44 (15:10) 10.8 0 5.2 5.6 0
04-06-2019 30.4 (16:20) 14.1 (00:00) 22.3 9.72 (20:20) 6.94 (21:00) 0 0 0 0 0
03-06-2019 30.1 (15:20) 16.4 (00:00) 23.3 7.22 (18:20) 5.56 (18:00) 0 0 0 0 0
02-06-2019 30.2 (17:10) 12.2 (00:00) 21.2 9.72 (16:50) 7.22 (18:20) 0 0 0 0 0
01-06-2019 28.9 (16:20) 11.8 (00:00) 20.3 9.44 (17:40) 7.22 (18:10) 0 0 0 0 0
31-05-2019 26.8 (15:50) 9.8 (00:00) 18.3 8.61 (17:00) 6.67 (17:00) 0 0 0 0 0
30-05-2019 25.8 (16:20) 8 (00:00) 16.9 8.33 (18:10) 6.39 (17:10) 0 0 0 0 0
29-05-2019 23.2 (16:00) 8.2 (00:00) 15.7 18.06 (20:20) 10 (22:20) 0 0 0 0 0
28-05-2019 24.5 (16:10) 8.9 (00:00) 16.7 15 (21:50) 8.89 (21:40) 0 0 0 0 0
27-05-2019 23.2 (17:30) 8.1 (00:00) 15.7 8.33 (23:10) 6.39 (23:20) 0 0 0 0 0
26-05-2019 25.1 (16:40) 8.1 (00:00) 16.6 11.67 (19:50) 5.83 (21:10) 0 0 0 0 0
25-05-2019 23.8 (14:30) 9.9 (00:00) 16.8 13.61 (21:00) 8.33 (20:00) 0 0 0 0 0
24-05-2019 18.7 (16:30) 12.5 (00:00) 15.6 7.5 (18:30) 5 (17:30) 10.2 6.2 4 0 0
23-05-2019 26.4 (15:40) 9.1 (00:00) 17.8 12.22 (20:30) 8.61 (20:40) 0 0 0 0 0
22-05-2019 23.3 (16:00) 7.9 (00:00) 15.6 7.78 (18:50) 6.11 (18:40) 0 0 0 0 0

Gráficas

Temp. máximas Temp. mínimas Temp. medias Precipitaciones Rachas de viento máximas Velocidades máximas media en intervalos de 10 minutos

Datos horarios

Fecha y hora oficial Temperatura (ºC) Velocidad del viento (km/h) Dirección del viento Racha (km/h) Dirección de racha Precipitación (mm) Presión (hPa) Tendencia (hPa) Humedad (%)
2019-06-20 23:00:00 18.7 8 Oeste 19 Norte 0 -- -- 82
2019-06-20 22:00:00 19.9 6 Oeste 18 Sudeste 0 -- -- 73
2019-06-20 21:00:00 19.9 17 Sudeste 39 Sudeste 0 -- -- 72
2019-06-20 20:00:00 22 29 Sudeste 44 Sudeste 0 -- -- 59
2019-06-20 19:00:00 26.6 15 Sur 25 Sudeste 0 -- -- 42
2019-06-20 18:00:00 26.8 11 Sudeste 26 Sudeste 0 -- -- 42
2019-06-20 17:00:00 27.4 13 Sur 29 Sudeste 0 -- -- 43
2019-06-20 16:00:00 27.3 16 Sudeste 32 Sudeste 0 -- -- 44
2019-06-20 15:00:00 27.6 18 Sudeste 26 Sudeste 0 -- -- 44
2019-06-20 14:00:00 27.6 13 Sudeste 24 Sudeste 0 -- -- 44
2019-06-20 13:00:00 26.8 9 Sudeste 18 Sudeste 0 -- -- 46
2019-06-20 12:00:00 25.6 11 Sudeste 21 Sudeste 0 -- -- 49
2019-06-20 11:00:00 23.2 3 Sudoeste 6 Oeste 0 -- -- 52
2019-06-20 10:00:00 19.5 4 Sur 7 Sur 0 -- -- 64
2019-06-20 09:00:00 17.8 0 Calma 5 Sur 0 -- -- 68
2019-06-20 08:00:00 16.3 0 Calma 17 Sur 0 -- -- 72
2019-06-20 07:00:00 15.8 10 Sur 18 Sur 0 -- -- 76
2019-06-20 06:00:00 16.7 8 Oeste 13 Norte 0 -- -- 64
2019-06-20 05:00:00 16.6 9 Norte 16 Norte 0 -- -- 64
2019-06-20 04:00:00 16.8 7 Norte 12 Nordeste 0 -- -- 61
2019-06-20 03:00:00 17.5 9 Norte 15 Norte 0 -- -- 60
2019-06-20 02:00:00 18.6 12 Norte 19 Norte 0 -- -- 55
2019-06-20 01:00:00 19.1 7 Norte 17 Noroeste 0 -- -- 53
2019-06-20 00:00:00 18.9 8 Norte 14 Norte 0 -- -- 54
2019-06-19 23:00:00 20.8 7 Noroeste 18 Oeste 0 -- -- 47
2019-06-19 22:00:00 22.6 11 Oeste 18 Oeste 0 -- -- 43
2019-06-19 21:00:00 25.3 13 Oeste 23 Oeste 0 -- -- 35
2019-06-19 20:00:00 28.5 17 Oeste 24 Oeste 0 -- -- 33
2019-06-19 19:00:00 28.9 12 Oeste 24 Sudeste 0 -- -- 33
2019-06-19 18:00:00 28.2 16 Sudeste 27 Sudeste 0 -- -- 34
2019-06-19 17:00:00 27.9 16 Sudeste 30 Sudeste 0 -- -- 33
2019-06-19 16:00:00 28.6 17 Sudeste 25 Sudeste 0 -- -- 32
2019-06-19 15:00:00 27.3 19 Sudeste -- -- -- -- -- 33
2019-06-19 14:00:00 29 11 Sudeste 21 Sudeste 0 -- -- 32
2019-06-19 13:00:00 27.7 10 Sudeste 19 Sudeste 0 -- -- 31
2019-06-19 12:00:00 25.9 10 Sudeste -- -- -- -- -- 34
2019-06-19 11:00:00 -- -- -- -- -- -- -- -- --
2019-06-19 10:00:00 -- -- -- -- -- -- -- -- --
2019-06-19 09:00:00 -- -- -- -- -- -- -- -- --
2019-06-19 08:00:00 -- -- -- -- -- -- -- -- --
2019-06-19 07:00:00 -- -- -- -- -- -- -- -- --
2019-06-19 06:00:00 -- -- -- -- -- -- -- -- --
2019-06-19 05:00:00 -- -- -- -- -- -- -- -- --
2019-06-19 04:00:00 -- -- -- -- -- -- -- -- --
2019-06-19 03:00:00 -- -- -- -- -- -- -- -- --
2019-06-19 02:00:00 -- -- -- -- -- -- -- -- --
2019-06-19 01:00:00 -- -- -- -- -- -- -- -- --
2019-06-19 00:00:00 -- -- -- -- -- -- -- -- --
2019-06-18 23:00:00 -- -- -- -- -- -- -- -- --
2019-06-18 22:00:00 -- -- -- -- -- -- -- -- --
2019-06-18 21:00:00 -- -- -- -- -- -- -- -- --
2019-06-18 20:00:00 -- -- -- -- -- -- -- -- --
2019-06-18 19:00:00 29.5 21 Sudeste 30 Sudeste 0 -- -- 30
2019-06-18 18:00:00 31.1 17 Sudeste 33 Sudeste 0 -- -- 26
2019-06-18 17:00:00 30.6 21 Sudeste 35 Sudeste 0 -- -- 27
2019-06-18 16:00:00 31.6 21 Sudeste 35 Sudeste 0 -- -- 26
2019-06-18 15:00:00 31.2 10 Sudeste 19 Este 0 -- -- 31
2019-06-18 14:00:00 30.9 7 Sur 18 Sur 0 -- -- 31
2019-06-18 13:00:00 28.7 11 Sudeste 21 Sudeste 0 -- -- 39
2019-06-18 12:00:00 27.4 6 Sudeste 14 Sur 0 -- -- 39
2019-06-18 11:00:00 23.2 4 Sudoeste 10 Oeste 0 -- -- 50
2019-06-18 10:00:00 20.8 2 Oeste 9 Oeste 0 -- -- 58
2019-06-18 09:00:00 18.2 6 Norte 12 Norte 0 -- -- 67
2019-06-18 08:00:00 16.4 4 Norte 12 Norte 0 -- -- 72
2019-06-18 07:00:00 15.8 4 Oeste 10 Norte 0 -- -- 72
2019-06-18 06:00:00 16.4 8 Oeste 10 Oeste 0 -- -- 67
2019-06-18 05:00:00 16.7 5 Norte 13 Oeste 0 -- -- 66
2019-06-18 04:00:00 16.9 7 Noroeste 12 Noroeste 0 -- -- 64
2019-06-18 03:00:00 17.4 6 Noroeste 13 Noroeste 0 -- -- 61
2019-06-18 02:00:00 18.2 10 Noroeste 13 Noroeste 0 -- -- 60
2019-06-18 01:00:00 19.6 7 Noroeste 13 Noroeste 0 -- -- 56
2019-06-18 00:00:00 21.1 6 Noroeste 10 Este 0 -- -- 50
2019-06-17 23:00:00 22.5 8 Nordeste 12 Este 0 -- -- 49
2019-06-17 22:00:00 24.2 7 Noroeste 12 Sudeste 0 -- -- 36
2019-06-17 21:00:00 27.4 11 Sudeste 19 Sudeste 0 -- -- 32
2019-06-17 20:00:00 29.3 13 Sur 26 Sudeste 0 -- -- 27
2019-06-17 19:00:00 30 17 Sur 35 Sudeste 0 -- -- 27
2019-06-17 18:00:00 30.3 20 Sudeste 28 Sudeste 0 -- -- 28
2019-06-17 17:00:00 30.4 20 Sudeste 31 Sudeste 0 -- -- 28
2019-06-17 16:00:00 30.2 21 Sudeste 28 Sudeste 0 -- -- 28
2019-06-17 15:00:00 30.7 13 Sudeste 22 Sudeste 0 -- -- 29
2019-06-17 14:00:00 29.8 12 Sudeste 19 Este 0 -- -- 30
2019-06-17 13:00:00 28.6 13 Sudeste 18 Sudeste 0 -- -- 33
2019-06-17 12:00:00 26.8 11 Sudeste 17 Sudeste 0 -- -- 37
2019-06-17 11:00:00 24 5 Sudeste 11 Sudeste 0 -- -- 43
2019-06-17 10:00:00 20.7 5 Sudeste 10 Este 0 -- -- 52
2019-06-17 09:00:00 17.4 0 Calma 7 Oeste 0 -- -- 65
2019-06-17 08:00:00 14.3 3 Noroeste 8 Norte 0 -- -- 73
2019-06-17 07:00:00 13.1 4 Oeste 9 Norte 0 -- -- 72
2019-06-17 06:00:00 13.4 6 Noroeste 11 Noroeste 0 -- -- 72
2019-06-17 05:00:00 14.3 8 Norte 13 Noroeste 0 -- -- 69
2019-06-17 04:00:00 14.9 8 Noroeste 14 Noroeste 0 -- -- 67
2019-06-17 03:00:00 15.2 6 Noroeste 15 Noroeste 0 -- -- 67
2019-06-17 02:00:00 15.9 6 Noroeste 15 Noroeste 0 -- -- 63
2019-06-17 01:00:00 17 8 Noroeste 10 Norte 0 -- -- 58
2019-06-17 00:00:00 18.3 7 Noroeste 12 Norte 0 -- -- 55
2019-06-16 23:00:00 19.8 7 Noroeste 15 Norte 0 -- -- 49
2019-06-16 22:00:00 22.7 3 Nordeste 13 Sudeste 0 -- -- 43
2019-06-16 21:00:00 24.6 13 Sudeste 20 Sudeste 0 -- -- 38
2019-06-16 20:00:00 25.6 15 Sudeste 21 Sudeste 0 -- -- 37
2019-06-16 19:00:00 26.6 14 Sudeste 22 Sudeste 0 -- -- 35
2019-06-16 18:00:00 27.7 12 Sudeste 21 Sudeste 0 -- -- 33
2019-06-16 17:00:00 27.9 15 Sudeste 22 Sur 0 -- -- 32
2019-06-16 16:00:00 27.3 14 Sudeste 24 Sudeste 0 -- -- 34
2019-06-16 15:00:00 27 11 Sudeste 21 Sudeste 0 -- -- 36
2019-06-16 14:00:00 26.1 13 Sudeste 21 Sudeste 0 -- -- 39
2019-06-16 13:00:00 24.4 14 Sudeste 19 Sudeste 0 -- -- 40
2019-06-16 12:00:00 22.3 9 Sudeste 14 Sudeste 0 -- -- 43
2019-06-16 11:00:00 20.2 8 Sudeste 14 Sudeste 0 -- -- 48
2019-06-16 10:00:00 17.6 6 Sudeste 11 Este 0 -- -- 56
2019-06-16 09:00:00 14.2 2 Sudoeste 5 Oeste 0 -- -- 72
2019-06-16 08:00:00 11.1 0 Calma 10 Oeste 0 -- -- 80
2019-06-16 07:00:00 10 5 Noroeste 15 Oeste 0 -- -- 82
2019-06-16 06:00:00 10.2 7 Noroeste 17 Noroeste 0 -- -- 81
2019-06-16 05:00:00 10.7 6 Noroeste 14 Norte 0 -- -- 79
2019-06-16 04:00:00 11.7 9 Oeste 16 Norte 0 -- -- 74
2019-06-16 03:00:00 12.7 8 Noroeste 17 Norte 0 -- -- 72
2019-06-16 02:00:00 13.8 6 Noroeste 14 Norte 0 -- -- 67
2019-06-16 01:00:00 14.7 5 Norte 19 Norte 0 -- -- 63
2019-06-16 00:00:00 16.2 14 Norte 18 Norte 0 -- -- 58
2019-06-15 23:00:00 18.4 6 Oeste 21 Oeste 0 -- -- 48
2019-06-15 22:00:00 20 12 Oeste 23 Oeste 0 -- -- 43
2019-06-15 21:00:00 23.1 13 Oeste 31 Oeste 0 -- -- 36
2019-06-15 20:00:00 24.9 23 Oeste 34 Oeste 0 -- -- 32
2019-06-15 19:00:00 26.6 17 Oeste 31 Sudeste 0 -- -- 31
2019-06-15 18:00:00 25.8 15 Sudeste 28 Sudeste 0 -- -- 36
2019-06-15 17:00:00 24.1 18 Sudeste 31 Sudeste 0 -- -- 39
2019-06-15 16:00:00 24.8 21 Sudeste 29 Sudeste 0 -- -- 36
2019-06-15 15:00:00 26.2 17 Sudeste 27 Sudeste 0 -- -- 36
2019-06-15 14:00:00 24.8 13 Oeste 26 Sudoeste 0 -- -- 41
2019-06-15 13:00:00 23.9 12 Sudeste 22 Sudeste 0 -- -- 52
2019-06-15 12:00:00 22.1 12 Sudeste 18 Sudeste 0 -- -- 59
2019-06-15 11:00:00 20.4 11 Sudeste 17 Sudeste 0 -- -- 71
2019-06-15 10:00:00 19 5 Sudoeste 12 Sudoeste 0 -- -- 75
2019-06-15 09:00:00 16.5 3 Sudeste 10 Nordeste 0 -- -- 86
2019-06-15 08:00:00 13.8 0 Calma 12 Oeste 0 -- -- 94
2019-06-15 07:00:00 13.2 10 Oeste 13 Oeste 0 -- -- 95
2019-06-15 06:00:00 13.9 6 Norte 12 Oeste 0 -- -- 94
2019-06-15 05:00:00 14.5 4 Noroeste 12 Oeste 0 -- -- 92
2019-06-15 04:00:00 14.8 6 Oeste 13 Oeste 0 -- -- 91
2019-06-15 03:00:00 15.8 5 Noroeste 13 Nordeste 0 -- -- 84
2019-06-15 02:00:00 16.3 4 Oeste 31 Oeste 0 -- -- 83
2019-06-15 01:00:00 16.4 7 Noroeste 19 Norte 0 -- -- 77
2019-06-15 00:00:00 16.8 12 Norte 19 Norte 0 -- -- 77
2019-06-14 23:00:00 17.7 9 Noroeste 18 Noroeste 0 -- -- 73
2019-06-14 22:00:00 19.5 11 Noroeste 14 Noroeste 0 -- -- 66
2019-06-14 21:00:00 23.1 10 Norte 13 Norte 0 -- -- 53
2019-06-14 20:00:00 25.4 3 Norte 6 Norte 0 -- -- 44
2019-06-14 19:00:00 25 4 Norte 8 Norte 0 -- -- 46
2019-06-14 18:00:00 24.7 3 Este 8 Norte 0 -- -- 48
2019-06-14 17:00:00 23.2 5 Noroeste 11 Norte 0 -- -- 57
2019-06-14 16:00:00 20.1 6 Noroeste 25 Oeste 0.6 -- -- 73
2019-06-14 15:00:00 21.1 24 Oeste 39 Oeste 0 -- -- 59
2019-06-14 14:00:00 24.8 19 Sudeste 28 Sudeste 0 -- -- 46
2019-06-14 13:00:00 25.7 11 Sudeste 19 Sudeste 0 -- -- 44
2019-06-14 12:00:00 22.4 9 Sudoeste 12 Sudoeste 0 -- -- 52
2019-06-14 11:00:00 19.3 5 Noroeste 15 Oeste 0 -- -- 60
2019-06-14 10:00:00 17.5 6 Sudoeste 12 Sudoeste 0 -- -- 64
2019-06-14 09:00:00 14.3 13 Oeste 17 Sudoeste 0 -- -- 73
2019-06-14 08:00:00 13.3 4 Oeste 9 Oeste 0 -- -- 82
2019-06-14 07:00:00 13.3 3 Sudeste 13 Noroeste 0 -- -- 76
2019-06-14 06:00:00 13.3 8 Noroeste 12 Noroeste 0 -- -- 77
2019-06-14 05:00:00 13.8 9 Oeste 12 Oeste 0 -- -- 71
2019-06-14 04:00:00 14.1 8 Norte 14 Oeste 0 -- -- 76
2019-06-14 03:00:00 14.9 6 Oeste 16 Noroeste 0 -- -- 68
2019-06-14 02:00:00 15.3 7 Norte 14 Norte 0 -- -- 72
2019-06-14 01:00:00 15.9 8 Noroeste 11 Oeste 0 -- -- 68
2019-06-14 00:00:00 16.6 8 Norte 12 Noroeste 0 -- -- 66
2019-06-13 23:00:00 18 4 Norte 12 Noroeste 0 -- -- 61
2019-06-13 22:00:00 19.2 3 Noroeste 19 Sur 0 -- -- 57
2019-06-13 21:00:00 20.5 12 Sur 39 Sudeste 0 -- -- 53
2019-06-13 20:00:00 22.8 29 Sur 47 Sudeste 0 -- -- 44
2019-06-13 19:00:00 24.9 9 Sur 23 Sudoeste 0 -- -- 36
2019-06-13 18:00:00 25 11 Sudeste 25 Sudeste 0 -- -- 38
2019-06-13 17:00:00 24.6 17 Sudeste 29 Sudeste 0 -- -- 40
2019-06-13 16:00:00 24.5 18 Sudeste 26 Sudeste 0 -- -- 41
2019-06-13 15:00:00 23.1 11 Sudeste 23 Sudeste 0 -- -- 41
2019-06-13 14:00:00 23 5 Sur 19 Sudeste 0 -- -- 40
2019-06-13 13:00:00 21.6 7 Sudeste 15 Sur 0 -- -- 40
2019-06-13 12:00:00 19.5 5 Oeste 10 Oeste 0 -- -- 49
2019-06-13 11:00:00 15.8 6 Oeste 12 Sudoeste 0 -- -- 53
2019-06-13 10:00:00 14.1 3 Oeste 8 Oeste 0 -- -- 66
2019-06-13 09:00:00 10.7 2 Sudoeste 6 Oeste 0 -- -- 74
2019-06-13 08:00:00 9 3 Noroeste 10 Oeste 0 -- -- 77
2019-06-13 07:00:00 7.4 9 Oeste 12 Oeste 0 -- -- 81
2019-06-13 06:00:00 8 7 Noroeste 14 Oeste 0 -- -- 78
2019-06-13 05:00:00 7.8 9 Noroeste 14 Oeste 0 -- -- 78
2019-06-13 04:00:00 8.1 8 Noroeste 16 Noroeste 0 -- -- 76
2019-06-13 03:00:00 8.8 9 Oeste 16 Oeste 0 -- -- 72
2019-06-13 02:00:00 9.6 5 Norte 12 Norte 0 -- -- 69
2019-06-13 01:00:00 10.5 9 Noroeste 17 Noroeste 0 -- -- 63
2019-06-13 00:00:00 11.7 12 Noroeste 18 Noroeste 0 -- -- 58
2019-06-12 23:00:00 12.9 13 Norte 17 Norte 0 -- -- 54
2019-06-12 22:00:00 14.9 9 Noroeste 15 Noroeste 0 -- -- 47
2019-06-12 21:00:00 20.3 5 Sudeste 10 Este 0 -- -- 31
2019-06-12 20:00:00 20.9 2 Oeste 12 Sur 0 -- -- 31
2019-06-12 19:00:00 21 6 Este 13 Este 0 -- -- 31
2019-06-12 18:00:00 19.4 5 Nordeste 21 Sudeste 0 -- -- 35
2019-06-12 17:00:00 19.8 13 Sudeste 30 Sudeste 0 -- -- 34
2019-06-12 16:00:00 19.3 14 Sudeste 25 Sudeste 0 -- -- 34
2019-06-12 15:00:00 20.3 16 Sudeste 25 Sudeste 0 -- -- 35
2019-06-12 14:00:00 19.2 13 Sudeste 23 Sudeste 0 -- -- 38
2019-06-12 13:00:00 17.9 8 Sudeste 17 Nordeste 0 -- -- 40
2019-06-12 12:00:00 17.5 12 Este 25 Este 0 -- -- 41
2019-06-12 11:00:00 14.8 8 Sudeste 14 Sur 0 -- -- 45
2019-06-12 10:00:00 11.9 5 Este 10 Sur 0 -- -- 61
2019-06-12 09:00:00 9.1 3 Sudoeste 11 Nordeste 0 -- -- 76
2019-06-12 08:00:00 6 7 Nordeste 12 Norte 0 -- -- 90
2019-06-12 07:00:00 4.5 9 Norte 17 Noroeste 0 -- -- 92
2019-06-12 06:00:00 4.5 9 Noroeste 16 Norte 0 -- -- 91
2019-06-12 05:00:00 5.1 7 Norte 14 Norte 0 -- -- 91
2019-06-12 04:00:00 5.7 10 Norte 16 Norte 0 -- -- 89
2019-06-12 03:00:00 6.5 8 Noroeste 18 Norte 0 -- -- 86
2019-06-12 02:00:00 7.1 10 Norte 18 Norte 0 -- -- 86
2019-06-12 01:00:00 7.7 10 Norte 15 Norte 0 -- -- 84
2019-06-12 00:00:00 9.4 8 Norte 14 Noroeste 0 -- -- 77
2019-06-11 23:00:00 10.7 5 Noroeste 14 Oeste 0 -- -- 70
2019-06-11 22:00:00 11.7 13 Noroeste 22 Noroeste 0 -- -- 64
2019-06-11 21:00:00 14.6 16 Noroeste 29 Noroeste 0 -- -- 54
2019-06-11 20:00:00 14 15 Noroeste 32 Norte 0 -- -- 56
2019-06-11 19:00:00 15 17 Norte 35 Norte 0 -- -- 55
2019-06-11 18:00:00 14.9 13 Norte 33 Norte 0 -- -- 58
2019-06-11 17:00:00 16.1 7 Norte 28 Norte 0 -- -- 61
2019-06-11 16:00:00 15.1 7 Este 31 Sudeste 0 -- -- 72
2019-06-11 15:00:00 13.4 21 Sudeste 30 Sudeste 0.4 -- -- 83
2019-06-11 14:00:00 16.1 17 Sudeste 24 Sudeste 0 -- -- 65
2019-06-11 13:00:00 14.9 8 Sudeste 13 Sudeste 0 -- -- 74
2019-06-11 12:00:00 13.2 7 Sudoeste 15 Sudoeste 0 -- -- 74
2019-06-11 11:00:00 11.8 3 Sudeste 6 Sur 0 -- -- 86
2019-06-11 10:00:00 10.7 3 Este 6 Este 0.4 -- -- 93
2019-06-11 09:00:00 10.4 2 Sur 6 Sudeste 0.2 -- -- 95
2019-06-11 08:00:00 10 2 Sudeste 8 Sur 0.2 -- -- 96
2019-06-11 07:00:00 9.9 6 Norte 9 Norte 0 -- -- 96
2019-06-11 06:00:00 9.9 3 Oeste 7 Oeste 0 -- -- 94
2019-06-11 05:00:00 9.8 0 Calma 9 Sudoeste 0 -- -- 91
2019-06-11 04:00:00 9.8 9 Sudoeste 14 Oeste 0.8 -- -- 93
2019-06-11 03:00:00 10.2 5 Noroeste 14 Oeste 1.4 -- -- 91
2019-06-11 02:00:00 11.2 9 Oeste 40 Oeste 1.2 -- -- 81
2019-06-11 01:00:00 14.7 7 Sudoeste 14 Este 0 -- -- 54
2019-06-11 00:00:00 15.1 10 Oeste 26 Oeste 0 -- -- 53
2019-06-10 23:00:00 15.7 8 Sur 15 Sudoeste 0 -- -- 52
2019-06-10 22:00:00 16.3 10 Sudoeste 23 Sudoeste 0 -- -- 49
2019-06-10 21:00:00 18.6 10 Sudoeste 21 Noroeste 0 -- -- 43
2019-06-10 20:00:00 20 17 Sudoeste 26 Oeste 0 -- -- 41
2019-06-10 19:00:00 22.8 23 Oeste 36 Oeste 0 -- -- 37
2019-06-10 18:00:00 24.8 22 Oeste 39 Oeste 0 -- -- 34
2019-06-10 17:00:00 25 16 Sudoeste 26 Sudoeste 0 -- -- 37
2019-06-10 16:00:00 23.8 15 Sudeste 27 Sudeste 0 -- -- 44
2019-06-10 15:00:00 21.2 20 Sudeste 32 Sudeste 0 -- -- 56
2019-06-10 14:00:00 21.4 26 Sudeste 35 Sudeste 0 -- -- 53
2019-06-10 13:00:00 21.6 26 Sudeste 32 Sudeste 0 -- -- 55
2019-06-10 12:00:00 21.5 21 Sudeste 28 Sudeste 0 -- -- 56
2019-06-10 11:00:00 21.3 16 Sudeste 22 Sudeste 0 -- -- 56
2019-06-10 10:00:00 17.9 4 Noroeste 10 Noroeste 0 -- -- 63
2019-06-10 09:00:00 16.4 6 Noroeste 14 Noroeste 0 -- -- 72
2019-06-10 08:00:00 13.8 11 Noroeste 15 Noroeste 0 -- -- 85
2019-06-10 07:00:00 13.9 10 Oeste 19 Oeste 0 -- -- 83
2019-06-10 06:00:00 14.1 14 Oeste 23 Oeste 0 -- -- 84
2019-06-10 05:00:00 15 17 Oeste 28 Oeste 0.2 -- -- 82
2019-06-10 04:00:00 16.4 5 Noroeste 26 Oeste 0 -- -- 65
2019-06-10 03:00:00 16.6 11 Oeste 22 Sudoeste 0 -- -- 67
2019-06-10 02:00:00 17.3 8 Noroeste 14 Oeste 0 -- -- 62
2019-06-10 01:00:00 17.9 6 Norte 8 Oeste 0 -- -- 61
2019-06-10 00:00:00 18.7 6 Este 14 Sudeste 0 -- -- 59
2019-06-09 23:00:00 19.7 10 Oeste 13 Oeste 0 -- -- 53
2019-06-09 22:00:00 21 10 Oeste 13 Oeste 0 -- -- 51
2019-06-09 21:00:00 24.8 8 Norte 12 Sudeste 0 -- -- 38
2019-06-09 20:00:00 24.5 9 Sudeste 20 Sudeste 0 -- -- 39
2019-06-09 19:00:00 25.8 16 Sudeste 24 Sudeste 0 -- -- 36
2019-06-09 18:00:00 26.8 10 Sudeste 20 Sur 0 -- -- 35
2019-06-09 17:00:00 27 10 Sudeste 22 Sudeste 0 -- -- 33
2019-06-09 16:00:00 26.3 13 Sudeste 23 Sudeste 0 -- -- 37
2019-06-09 15:00:00 27 13 Sudeste 20 Sudeste 0 -- -- 35
2019-06-09 14:00:00 25.5 11 Sudeste 21 Sudeste 0 -- -- 38
2019-06-09 13:00:00 25 8 Sudeste 19 Sur 0 -- -- 40
2019-06-09 12:00:00 23.7 13 Sur 18 Sur 0 -- -- 42
2019-06-09 11:00:00 21.7 4 Sudeste 10 Este 0 -- -- 47
2019-06-09 10:00:00 18.4 3 Sudeste 7 Nordeste 0 -- -- 63
2019-06-09 09:00:00 15.8 6 Sudeste 9 Sudeste 0 -- -- 71
2019-06-09 08:00:00 14.6 4 Noroeste 10 Oeste 0 -- -- 75
2019-06-09 07:00:00 13.9 2 Noroeste 12 Oeste 0 -- -- 73
2019-06-09 06:00:00 13.8 11 Noroeste 14 Noroeste 0 -- -- 71
2019-06-09 05:00:00 13.9 7 Noroeste 12 Norte 0 -- -- 73
2019-06-09 04:00:00 14.3 5 Oeste 10 Noroeste 0 -- -- 69
2019-06-09 03:00:00 14.3 6 Oeste 13 Oeste 0 -- -- 69
2019-06-09 02:00:00 15.1 7 Oeste 16 Norte 0 -- -- 62
2019-06-09 01:00:00 15.5 7 Oeste 13 Norte 0 -- -- 63
2019-06-09 00:00:00 16.8 4 Oeste 12 Sur 0 -- -- 58
2019-06-08 23:00:00 17.8 4 Sudeste 15 Sur 0 -- -- 52
2019-06-08 22:00:00 18.8 10 Sur 28 Sur 0 -- -- 49
2019-06-08 21:00:00 20.6 16 Sur 28 Sur 0 -- -- 48
2019-06-08 20:00:00 22.6 8 Sudeste 19 Sur 0 -- -- 44
2019-06-08 19:00:00 22.8 15 Sur 29 Sudeste 0 -- -- 43
2019-06-08 18:00:00 24.1 18 Sudeste 26 Sudeste 0 -- -- 40
2019-06-08 17:00:00 25.8 12 Sudeste 18 Sudeste 0 -- -- 32
2019-06-08 16:00:00 25.1 8 Sur 18 Este 0 -- -- 33
2019-06-08 15:00:00 24 7 Sur 16 Este 0 -- -- 35
2019-06-08 14:00:00 22.9 4 Sur 13 Sudeste 0 -- -- 36
2019-06-08 13:00:00 22 5 Sudoeste 14 Sudeste 0 -- -- 38
2019-06-08 12:00:00 19.8 8 Sur 17 Sur 0 -- -- 44
2019-06-08 11:00:00 17.7 6 Sudeste 12 Sudeste 0 -- -- 44
2019-06-08 10:00:00 14.6 6 Este 19 Sudeste 0 -- -- 54
2019-06-08 09:00:00 12.1 2 Este 10 Norte 0 -- -- 61
2019-06-08 08:00:00 9.2 4 Norte 17 Norte 0 -- -- 71
2019-06-08 07:00:00 7.1 7 Noroeste 14 Noroeste 0 -- -- 76
2019-06-08 06:00:00 7.2 8 Noroeste 13 Norte 0 -- -- 75
2019-06-08 05:00:00 7.5 8 Noroeste 12 Norte 0 -- -- 74
2019-06-08 04:00:00 9 4 Noroeste 9 Noroeste 0 -- -- 67
2019-06-08 03:00:00 9.5 5 Noroeste 12 Noroeste 0 -- -- 65
2019-06-08 02:00:00 10.5 9 Noroeste 14 Norte 0 -- -- 62
2019-06-08 01:00:00 11.6 5 Oeste 16 Noroeste 0 -- -- 56
2019-06-08 00:00:00 12.8 15 Norte 27 Norte 0 -- -- 51
2019-06-07 23:00:00 13.8 16 Norte 21 Norte 0 -- -- 48
2019-06-07 22:00:00 15.7 8 Noroeste 19 Oeste 0 -- -- 38
2019-06-07 21:00:00 18.7 16 Oeste 31 Oeste 0 -- -- 32
2019-06-07 20:00:00 20.4 19 Oeste 31 Sudoeste 0 -- -- 30
2019-06-07 19:00:00 20.7 25 Oeste 35 Oeste 0 -- -- 28
2019-06-07 18:00:00 21.6 22 Oeste 33 Oeste 0 -- -- 33
2019-06-07 17:00:00 21.9 19 Oeste 31 Oeste 0 -- -- 32
2019-06-07 16:00:00 21.8 12 Oeste 23 Oeste 0 -- -- 36
2019-06-07 15:00:00 20.6 10 Sur 23 Sudeste 0 -- -- 40
2019-06-07 14:00:00 19.9 14 Sudeste 28 Sudeste 0 -- -- 43
2019-06-07 13:00:00 19 18 Sudeste 29 Sudeste 0 -- -- 49
2019-06-07 12:00:00 18.4 12 Sudeste 18 Sudeste 0 -- -- 64
2019-06-07 11:00:00 16 8 Este 20 Sudeste 0 -- -- 81
2019-06-07 10:00:00 12.9 6 Sudeste 23 Sudoeste 0.6 -- -- 91
2019-06-07 09:00:00 13.2 16 Sudoeste 24 Sudoeste 0.8 -- -- 85
2019-06-07 08:00:00 13 10 Sudeste 21 Sudoeste 0.2 -- -- 80
2019-06-07 07:00:00 14.5 14 Sur 24 Sur 0 -- -- 64
2019-06-07 06:00:00 14.4 10 Sudoeste 18 Sudoeste 0 -- -- 64
2019-06-07 05:00:00 14.3 7 Sur 9 Sudoeste 0 -- -- 68
2019-06-07 04:00:00 14.2 5 Oeste 10 Sudeste 0 -- -- 66
2019-06-07 03:00:00 14.7 6 Sudeste 13 Sur 0 -- -- 64
2019-06-07 02:00:00 15.4 9 Sur 17 Sudeste 0 -- -- 58
2019-06-07 01:00:00 16 8 Sudeste 21 Sudeste 0 -- -- 56
2019-06-07 00:00:00 16.2 12 Sudeste 24 Este 0 -- -- 54
2019-06-06 23:00:00 16.5 8 Este 24 Este 0 -- -- 57
2019-06-06 22:00:00 17 12 Sudeste 33 Sudeste 0 -- -- 55
2019-06-06 21:00:00 18.1 21 Sudeste 42 Sudeste 0 -- -- 53
2019-06-06 20:00:00 19.9 27 Sudeste 39 Sudeste 0 -- -- 50
2019-06-06 19:00:00 21.4 22 Sudeste 47 Sudeste 0 -- -- 48
2019-06-06 18:00:00 20.7 24 Sur 36 Sur 0 -- -- 41
2019-06-06 17:00:00 22.5 19 Sudeste 36 Sudeste 0 -- -- 34
2019-06-06 16:00:00 22 18 Sudeste 32 Sudeste 0 -- -- 34
2019-06-06 15:00:00 21.4 21 Sudeste 37 Sudeste 0 -- -- 39
2019-06-06 14:00:00 20.8 15 Sudeste 29 Sudeste 0 -- -- 41
2019-06-06 13:00:00 19.9 20 Sudeste 29 Sudeste 0 -- -- 47
2019-06-06 12:00:00 18.7 15 Sudeste 21 Sudeste 0 -- -- 49
2019-06-06 11:00:00 15.8 5 Sudeste 10 Este 0 -- -- 56
2019-06-06 10:00:00 13.5 5 Este 9 Este 0 -- -- 69
2019-06-06 09:00:00 10.9 0 Calma 10 Norte 0 -- -- 79
2019-06-06 08:00:00 9.3 6 Norte 12 Noroeste 0 -- -- 88
2019-06-06 07:00:00 8.4 5 Noroeste 13 Noroeste 0 -- -- 88
2019-06-06 06:00:00 8.1 7 Noroeste 12 Norte 0 -- -- 91
2019-06-06 05:00:00 8.8 7 Norte 10 Noroeste 0 -- -- 88
2019-06-06 04:00:00 9 3 Sudoeste 13 Oeste 0 -- -- 86
2019-06-06 03:00:00 9.6 5 Noroeste 14 Norte 0 -- -- 81
2019-06-06 02:00:00 9.5 9 Norte 14 Norte 0 -- -- 84
2019-06-06 01:00:00 10 8 Noroeste 12 Norte 0 -- -- 81
2019-06-06 00:00:00 11.6 9 Oeste 23 Oeste 0 -- -- 69
2019-06-05 23:00:00 12.4 16 Oeste 21 Oeste 0 -- -- 66
2019-06-05 22:00:00 13.2 18 Oeste 30 Oeste 0 -- -- 64
2019-06-05 21:00:00 15.7 15 Oeste 32 Oeste 0 -- -- 58
2019-06-05 20:00:00 17.4 24 Oeste 35 Noroeste 0 -- -- 52
2019-06-05 19:00:00 17.5 21 Noroeste 31 Noroeste 0 -- -- 50
2019-06-05 18:00:00 17.9 14 Norte 24 Norte 0 -- -- 52
2019-06-05 17:00:00 18.2 15 Oeste 44 Oeste 0 -- -- 57
2019-06-05 16:00:00 15.7 8 Sudeste 50 Sudoeste 5.4 -- -- 79
2019-06-05 15:00:00 17.2 8 Oeste 20 Sudoeste 0 -- -- 65
2019-06-05 14:00:00 17.4 4 Nordeste 19 Oeste 0 -- -- 66
2019-06-05 13:00:00 13.8 4 Noroeste 20 Oeste 0.2 -- -- 84
2019-06-05 12:00:00 13.1 8 Sur 42 Sur 0.8 -- -- 89
2019-06-05 11:00:00 14.4 25 Sur 35 Sur 4.4 -- -- 91
2019-06-05 10:00:00 16.9 12 Sudeste 18 Sudeste 0 -- -- 69
2019-06-05 09:00:00 15.3 5 Nordeste 9 Norte 0 -- -- 72
2019-06-05 08:00:00 13.9 0 Calma 9 Oeste 0 -- -- 75
2019-06-05 07:00:00 13.2 6 Oeste 14 Norte 0 -- -- 77
2019-06-05 06:00:00 13.7 7 Norte 13 Norte 0 -- -- 76
2019-06-05 05:00:00 13.8 13 Noroeste 17 Oeste 0 -- -- 76
2019-06-05 04:00:00 15.8 7 Oeste 10 Oeste 0 -- -- 71
2019-06-05 03:00:00 17.1 8 Noroeste 17 Oeste 0 -- -- 64
2019-06-05 02:00:00 18.8 13 Oeste 17 Oeste 0 -- -- 54
2019-06-05 01:00:00 21.2 12 Sur 21 Sur 0 -- -- 39
2019-06-05 00:00:00 21.8 9 Sudoeste 20 Sur 0 -- -- 39
2019-06-04 23:00:00 22.8 10 Sur 15 Sudeste 0 -- -- 38
2019-06-04 22:00:00 24 4 Sudeste 30 Sudeste 0 -- -- 41
2019-06-04 21:00:00 26 25 Sur 35 Sudeste 0 -- -- 34
2019-06-04 20:00:00 27.8 23 Sur 31 Sudeste 0 -- -- 34
2019-06-04 19:00:00 28.8 18 Sudeste 26 Sudeste 0 -- -- 32
2019-06-04 18:00:00 28.9 17 Sudeste 27 Sudeste 0 -- -- 31
2019-06-04 17:00:00 30 13 Sudeste 31 Sudeste 0 -- -- 28
2019-06-04 16:00:00 29.9 18 Sudeste 30 Este 0 -- -- 28
2019-06-04 15:00:00 29.2 19 Sudeste 25 Sudeste 0 -- -- 31
2019-06-04 14:00:00 28.1 15 Sudeste 21 Sudeste 0 -- -- 34
2019-06-04 13:00:00 27.2 12 Sudeste 21 Sudeste 0 -- -- 36
2019-06-04 12:00:00 25.8 8 Sudoeste 16 Sur 0 -- -- 40
2019-06-04 11:00:00 22.3 5 Este 10 Sudeste 0 -- -- 54
2019-06-04 10:00:00 19.3 3 Sudoeste 5 Este 0 -- -- 63
2019-06-04 09:00:00 16.4 3 Noroeste 6 Oeste 0 -- -- 73
2019-06-04 08:00:00 14.9 3 Noroeste 9 Noroeste 0 -- -- 76
2019-06-04 07:00:00 14.2 4 Noroeste 12 Oeste 0 -- -- 78
2019-06-04 06:00:00 14.2 7 Oeste 13 Oeste 0 -- -- 77
2019-06-04 05:00:00 14.6 8 Norte 13 Oeste 0 -- -- 77
2019-06-04 04:00:00 15.4 8 Oeste 14 Noroeste 0 -- -- 73
2019-06-04 03:00:00 16.7 5 Noroeste 12 Noroeste 0 -- -- 69
2019-06-04 02:00:00 17.2 6 Noroeste 13 Norte 0 -- -- 68
2019-06-04 01:00:00 18.6 5 Noroeste 10 Noroeste 0 -- -- 62
2019-06-04 00:00:00 19.3 9 Noroeste 12 Oeste 0 -- -- 59
2019-06-03 23:00:00 20.9 5 Noroeste 9 Norte 0 -- -- 55
2019-06-03 22:00:00 23.8 2 Sur 7 Sudeste 0 -- -- 48
2019-06-03 21:00:00 25.8 5 Sur 18 Sur 0 -- -- 41
2019-06-03 20:00:00 27.5 15 Sur 21 Sur 0 -- -- 38
2019-06-03 19:00:00 28.7 16 Sudeste 26 Sudeste 0 -- -- 33
2019-06-03 18:00:00 29.1 20 Sudeste 23 Sudeste 0 -- -- 32
2019-06-03 17:00:00 28.9 18 Sudeste 23 Sudeste 0 -- -- 34
2019-06-03 16:00:00 29.3 16 Sudeste 23 Sudeste 0 -- -- 31
2019-06-03 15:00:00 29.1 12 Sudeste 20 Sudeste 0 -- -- 33
2019-06-03 14:00:00 28.1 12 Sudeste 18 Sur 0 -- -- 35
2019-06-03 13:00:00 26.9 6 Sudeste 13 Sur 0 -- -- 38
2019-06-03 12:00:00 25.3 5 Este 10 Sudeste 0 -- -- 44
2019-06-03 11:00:00 21.8 4 Sur 11 Este 0 -- -- 62
2019-06-03 10:00:00 20.9 3 Oeste 7 Sur 0 -- -- 62
2019-06-03 09:00:00 18.7 4 Sudeste 8 Oeste 0 -- -- 68
2019-06-03 08:00:00 16.4 5 Oeste 9 Noroeste 0 -- -- 76
2019-06-03 07:00:00 16.7 3 Sudoeste 9 Norte 0 -- -- 71
2019-06-03 06:00:00 16.9 9 Norte 21 Oeste 0 -- -- 70
2019-06-03 05:00:00 16.8 6 Noroeste 14 Noroeste 0 -- -- 71
2019-06-03 04:00:00 16.9 9 Norte 13 Oeste 0 -- -- 70
2019-06-03 03:00:00 16.7 10 Noroeste 14 Oeste 0 -- -- 70
2019-06-03 02:00:00 17.6 6 Norte 17 Oeste 0 -- -- 63
2019-06-03 01:00:00 18 13 Oeste 18 Oeste 0 -- -- 60
2019-06-03 00:00:00 20.2 5 Noroeste 13 Norte 0 -- -- 52
2019-06-02 23:00:00 22 10 Norte 14 Noroeste 0 -- -- 45
2019-06-02 22:00:00 24.4 7 Nordeste 17 Sudeste 0 -- -- 39
2019-06-02 21:00:00 25.7 14 Sudeste 25 Sudeste 0 -- -- 36
2019-06-02 20:00:00 27.4 21 Sudeste 29 Sudeste 0 -- -- 35
2019-06-02 19:00:00 28.4 24 Sudeste 33 Sudeste 0 -- -- 34
2019-06-02 18:00:00 29.7 23 Sudeste 34 Sur 0 -- -- 33
2019-06-02 17:00:00 30 23 Sudeste 35 Sudeste 0 -- -- 33
2019-06-02 16:00:00 29.7 24 Sudeste 32 Sudeste 0 -- -- 35
2019-06-02 15:00:00 29.5 23 Sudeste 30 Sudeste 0 -- -- 38
2019-06-02 14:00:00 29.4 15 Sudeste 21 Sudeste 0 -- -- 37
2019-06-02 13:00:00 28.1 12 Sudeste 16 Sudeste 0 -- -- 37
2019-06-02 12:00:00 26.2 8 Sudeste 13 Sudeste 0 -- -- 40
2019-06-02 11:00:00 23.6 5 Sudeste 9 Sudeste 0 -- -- 50
2019-06-02 10:00:00 20.5 4 Sur 7 Sur 0 -- -- 58
2019-06-02 09:00:00 17 2 Sudoeste 11 Norte 0 -- -- 67
2019-06-02 08:00:00 13.9 0 Calma 9 Noroeste 0 -- -- 77
2019-06-02 07:00:00 12.2 6 Noroeste 14 Norte 0 -- -- 81
2019-06-02 06:00:00 12.9 6 Noroeste 13 Norte 0 -- -- 78
2019-06-02 05:00:00 13.1 8 Noroeste 10 Noroeste 0 -- -- 78
2019-06-02 04:00:00 14.3 6 Noroeste 14 Noroeste 0 -- -- 73
2019-06-02 03:00:00 14.8 8 Noroeste 12 Oeste 0 -- -- 71
2019-06-02 02:00:00 15.4 8 Noroeste 13 Noroeste 0 -- -- 70
2019-06-02 01:00:00 17.2 8 Noroeste 13 Norte 0 -- -- 63
2019-06-02 00:00:00 18.7 7 Norte 13 Norte 0 -- -- 57
2019-06-01 23:00:00 20.6 4 Norte 11 Oeste 0 -- -- 53
2019-06-01 22:00:00 23.2 6 Norte 13 Sudeste 0 -- -- 44
2019-06-01 21:00:00 25.6 10 Sudeste 21 Sur 0 -- -- 41
2019-06-01 20:00:00 27 18 Sudeste 26 Sudeste 0 -- -- 36
2019-06-01 19:00:00 27.8 19 Sudeste 32 Sudeste 0 -- -- 35
2019-06-01 18:00:00 28.5 23 Sudeste 34 Sudeste 0 -- -- 34
2019-06-01 17:00:00 28.5 19 Sudeste 28 Sudeste 0 -- -- 33
2019-06-01 16:00:00 28.6 19 Sudeste 26 Sudeste 0 -- -- 34
2019-06-01 15:00:00 28.6 12 Sudeste 16 Sudeste 0 -- -- 37
2019-06-01 14:00:00 27.7 9 Sudeste 15 Sudeste 0 -- -- 39
2019-06-01 13:00:00 26.6 12 Sudeste 18 Sudeste 0 -- -- 41
2019-06-01 12:00:00 25.1 8 Sudeste 13 Sudeste 0 -- -- 44
2019-06-01 11:00:00 22.7 4 Oeste 9 Sudeste 0 -- -- 53
2019-06-01 10:00:00 19.9 4 Sur 9 Nordeste 0 -- -- 61
2019-06-01 09:00:00 16.4 0 Calma 13 Noroeste 0 -- -- 73
2019-06-01 08:00:00 13.4 4 Noroeste 13 Nordeste 0 -- -- 80
2019-06-01 07:00:00 12.1 7 Noroeste 12 Noroeste 0 -- -- 83
2019-06-01 06:00:00 11.9 9 Noroeste 15 Noroeste 0 -- -- 85
2019-06-01 05:00:00 12.6 8 Noroeste 13 Norte 0 -- -- 82
2019-06-01 04:00:00 13.4 9 Noroeste 11 Noroeste 0 -- -- 80
2019-06-01 03:00:00 14.1 6 Noroeste 10 Oeste 0 -- -- 76
2019-06-01 02:00:00 14.5 8 Noroeste 12 Noroeste 0 -- -- 74
2019-06-01 01:00:00 16.1 4 Noroeste 10 Oeste 0 -- -- 68
2019-06-01 00:00:00 17.3 5 Noroeste 9 Norte 0 -- -- 64
2019-05-31 23:00:00 18.9 7 Noroeste 11 Noroeste 0 -- -- 57
2019-05-31 22:00:00 21.7 8 Norte 15 Sudeste 0 -- -- 49
2019-05-31 21:00:00 23.8 12 Sudeste 21 Sudeste 0 -- -- 43
2019-05-31 20:00:00 25.4 16 Sudeste 28 Sur 0 -- -- 40
2019-05-31 19:00:00 26.3 18 Sur 28 Sudeste 0 -- -- 39
2019-05-31 18:00:00 26.3 23 Sudeste 31 Sudeste 0 -- -- 38
2019-05-31 17:00:00 26.5 24 Sudeste 31 Sudeste 0 -- -- 38
2019-05-31 16:00:00 26.7 20 Sudeste 25 Sudeste 0 -- -- 37
2019-05-31 15:00:00 26.4 15 Sudeste 23 Sudeste 0 -- -- 39
2019-05-31 14:00:00 25.7 14 Sudeste 21 Sudeste 0 -- -- 40
2019-05-31 13:00:00 24.4 11 Sudeste 18 Sudeste 0 -- -- 42
2019-05-31 12:00:00 23.1 12 Sudeste 15 Sudeste 0 -- -- 47
2019-05-31 11:00:00 21.1 8 Sudeste 14 Este 0 -- -- 51
2019-05-31 10:00:00 17.7 3 Oeste 8 Norte 0 -- -- 56
2019-05-31 09:00:00 14.1 4 Noroeste 11 Norte 0 -- -- 64
2019-05-31 08:00:00 11.3 2 Norte 14 Norte 0 -- -- 73
2019-05-31 07:00:00 10.1 8 Noroeste 10 Noroeste 0 -- -- 73
2019-05-31 06:00:00 10.7 8 Noroeste 12 Norte 0 -- -- 71
2019-05-31 05:00:00 10.9 8 Noroeste 16 Noroeste 0 -- -- 72
2019-05-31 04:00:00 12.4 6 Noroeste 9 Oeste 0 -- -- 66
2019-05-31 03:00:00 13.5 6 Noroeste 13 Oeste 0 -- -- 62
2019-05-31 02:00:00 13.9 9 Oeste 12 Oeste 0 -- -- 63
2019-05-31 01:00:00 15.6 9 Oeste 11 Oeste 0 -- -- 59
2019-05-31 00:00:00 17.2 6 Oeste 10 Noroeste 0 -- -- 56
2019-05-30 23:00:00 18.4 8 Noroeste 10 Oeste 0 -- -- 55
2019-05-30 22:00:00 21.5 2 Nordeste 18 Este 0 -- -- 48
2019-05-30 21:00:00 23.2 14 Sudeste 24 Sudeste 0 -- -- 46
2019-05-30 20:00:00 24.2 20 Sudeste 26 Sudeste 0 -- -- 45
2019-05-30 19:00:00 25.2 21 Sudeste 30 Sudeste 0 -- -- 44
2019-05-30 18:00:00 25.6 23 Sudeste 30 Sudeste 0 -- -- 42
2019-05-30 17:00:00 25.6 22 Sudeste 29 Sudeste 0 -- -- 41
2019-05-30 16:00:00 25.3 19 Sudeste 26 Sur 0 -- -- 43
2019-05-30 15:00:00 25 17 Sudeste 23 Sudeste 0 -- -- 41
2019-05-30 14:00:00 24.1 15 Sudeste 21 Sudeste 0 -- -- 40
2019-05-30 13:00:00 22.7 13 Sudeste 19 Sudeste 0 -- -- 44
2019-05-30 12:00:00 21 9 Sudeste 15 Sudeste 0 -- -- 43
2019-05-30 11:00:00 18.5 8 Sudeste 12 Sudeste 0 -- -- 48
2019-05-30 10:00:00 16.1 6 Este 11 Este 0 -- -- 54
2019-05-30 09:00:00 12.8 2 Oeste 9 Norte 0 -- -- 67
2019-05-30 08:00:00 9.2 3 Noroeste 10 Oeste 0 -- -- 78
2019-05-30 07:00:00 8 8 Noroeste 14 Noroeste 0 -- -- 80
2019-05-30 06:00:00 9.1 4 Oeste 12 Noroeste 0 -- -- 74
2019-05-30 05:00:00 9.6 5 Noroeste 11 Oeste 0 -- -- 72
2019-05-30 04:00:00 10.5 6 Norte 13 Oeste 0 -- -- 67
2019-05-30 03:00:00 11.7 6 Oeste 10 Oeste 0 -- -- 63
2019-05-30 02:00:00 12.4 10 Noroeste 13 Oeste 0 -- -- 60
2019-05-30 01:00:00 14.4 6 Sudeste 16 Nordeste 0 -- -- 53
2019-05-30 00:00:00 16.4 6 Nordeste 41 Norte 0 -- -- 44
2019-05-29 23:00:00 17.5 27 Norte 56 Norte 0 -- -- 40
2019-05-29 22:00:00 17.3 32 Norte 56 Norte 0 -- -- 40
2019-05-29 21:00:00 18.4 32 Norte 65 Norte 0 -- -- 37
2019-05-29 20:00:00 19.7 33 Noroeste 52 Norte 0 -- -- 36
2019-05-29 19:00:00 21.3 28 Norte 47 Norte 0 -- -- 35
2019-05-29 18:00:00 22.3 22 Norte 47 Norte 0 -- -- 32
2019-05-29 17:00:00 22.8 19 Norte 42 Norte 0 -- -- 30
2019-05-29 16:00:00 23.2 14 Norte 33 Nordeste 0 -- -- 29
2019-05-29 15:00:00 22.5 19 Norte 36 Norte 0 -- -- 28
2019-05-29 14:00:00 22.1 14 Norte 32 Nordeste 0 -- -- 29
2019-05-29 13:00:00 20.6 7 Sudoeste 18 Sur 0 -- -- 30
2019-05-29 12:00:00 19.1 13 Sudoeste 21 Sudoeste 0 -- -- 36
2019-05-29 11:00:00 17.1 4 Sudeste 13 Este 0 -- -- 42
2019-05-29 10:00:00 14.8 6 Sudeste 15 Sudeste 0 -- -- 52
2019-05-29 09:00:00 11.9 3 Sudeste 10 Sudeste 0 -- -- 58
2019-05-29 08:00:00 9.3 3 Norte 11 Norte 0 -- -- 65
2019-05-29 07:00:00 8.3 3 Norte 18 Oeste 0 -- -- 65
2019-05-29 06:00:00 9.2 15 Oeste 29 Oeste 0 -- -- 63
2019-05-29 05:00:00 9.2 23 Oeste 30 Oeste 0 -- -- 60
2019-05-29 04:00:00 9.4 22 Oeste 28 Oeste 0 -- -- 59
2019-05-29 03:00:00 10.1 23 Oeste 29 Oeste 0 -- -- 55
2019-05-29 02:00:00 10.4 15 Oeste 30 Oeste 0 -- -- 55
2019-05-29 01:00:00 11.8 26 Oeste 41 Norte 0 -- -- 50
2019-05-29 00:00:00 13.9 28 Norte 42 Norte 0 -- -- 39
2019-05-28 23:00:00 14.2 19 Noroeste 41 Norte 0 -- -- 38
2019-05-28 22:00:00 15.1 28 Noroeste 54 Norte 0 -- -- 36
2019-05-28 21:00:00 16.8 25 Norte 45 Noroeste 0 -- -- 35
2019-05-28 20:00:00 19.4 22 Norte 39 Noroeste 0 -- -- 33
2019-05-28 19:00:00 21.2 22 Noroeste 44 Norte 0 -- -- 29
2019-05-28 18:00:00 21.8 22 Norte 47 Nordeste 0 -- -- 30
2019-05-28 17:00:00 23.2 20 Norte 38 Norte 0 -- -- 31
2019-05-28 16:00:00 24.2 11 Noroeste 23 Norte 0 -- -- 33
2019-05-28 15:00:00 23.7 6 Nordeste 15 Norte 0 -- -- 35
2019-05-28 14:00:00 22.8 5 Oeste 16 Sudeste 0 -- -- 35
2019-05-28 13:00:00 21.2 8 Sudeste 18 Sudeste 0 -- -- 44
2019-05-28 12:00:00 19.9 8 Sudeste 16 Sudeste 0 -- -- 45
2019-05-28 11:00:00 18.3 10 Sudeste 17 Sudeste 0 -- -- 49
2019-05-28 10:00:00 16.1 6 Sudeste 11 Sudeste 0 -- -- 49
2019-05-28 09:00:00 13.4 4 Este 12 Nordeste 0 -- -- 62
2019-05-28 08:00:00 10.6 5 Norte 10 Norte 0 -- -- 76
2019-05-28 07:00:00 8.9 10 Norte 12 Norte 0 -- -- 80
2019-05-28 06:00:00 9.8 6 Noroeste 10 Noroeste 0 -- -- 77
2019-05-28 05:00:00 10.2 6 Norte 11 Noroeste 0 -- -- 77
2019-05-28 04:00:00 11.1 7 Noroeste 10 Norte 0 -- -- 73
2019-05-28 03:00:00 12.1 5 Oeste 14 Oeste 0 -- -- 68
2019-05-28 02:00:00 13.6 8 Oeste 23 Oeste 0 -- -- 63
2019-05-28 01:00:00 14.7 18 Oeste 27 Oeste 0 -- -- 60
2019-05-28 00:00:00 15.6 19 Oeste 30 Oeste 0 -- -- 57
2019-05-27 23:00:00 17.6 20 Noroeste 29 Noroeste 0 -- -- 48
2019-05-27 22:00:00 18.2 22 Noroeste 28 Oeste 0 -- -- 50
2019-05-27 21:00:00 20.6 8 Oeste 12 Oeste 0 -- -- 60
2019-05-27 20:00:00 19.6 5 Este 23 Sudeste 0 -- -- 67
2019-05-27 19:00:00 19.8 15 Sudeste 24 Sudeste 0 -- -- 65
2019-05-27 18:00:00 22.5 19 Sudeste 25 Sudeste 0 -- -- 57
2019-05-27 17:00:00 21.7 12 Sudeste 19 Sudeste 0 -- -- 55
2019-05-27 16:00:00 21.8 12 Sudeste 23 Sudeste 0 -- -- 54
2019-05-27 15:00:00 22.7 15 Sudeste 24 Sudeste 0 -- -- 54
2019-05-27 14:00:00 21.8 16 Sudeste 22 Sudeste 0 -- -- 53
2019-05-27 13:00:00 21.2 15 Sudeste 21 Sudeste 0 -- -- 54
2019-05-27 12:00:00 19.9 12 Sudeste 18 Sudeste 0 -- -- 51
2019-05-27 11:00:00 17 4 Este 10 Este 0 -- -- 55
2019-05-27 10:00:00 14.2 2 Sudoeste 6 Nordeste 0 -- -- 67
2019-05-27 09:00:00 11.1 0 Calma 10 Norte 0 -- -- 76
2019-05-27 08:00:00 9.6 5 Norte 13 Norte 0 -- -- 79
2019-05-27 07:00:00 8.1 10 Norte 15 Norte 0 -- -- 83
2019-05-27 06:00:00 9.3 5 Noroeste 14 Norte 0 -- -- 78
2019-05-27 05:00:00 9.5 8 Norte 20 Norte 0 -- -- 76
2019-05-27 04:00:00 10.6 9 Noroeste 17 Norte 0 -- -- 73
2019-05-27 03:00:00 11.8 8 Noroeste 13 Noroeste 0 -- -- 66
2019-05-27 02:00:00 13 9 Noroeste 13 Oeste 0 -- -- 63
2019-05-27 01:00:00 14.5 10 Noroeste 16 Oeste 0 -- -- 58
2019-05-27 00:00:00 16 5 Noroeste 19 Oeste 0 -- -- 50
2019-05-26 23:00:00 17.2 12 Oeste 26 Noroeste 0 -- -- 44
2019-05-26 22:00:00 18 17 Noroeste 35 Norte 0 -- -- 41
2019-05-26 21:00:00 19 16 Norte 40 Nordeste 0 -- -- 41
2019-05-26 20:00:00 21.5 15 Norte 42 Norte 0 -- -- 37
2019-05-26 19:00:00 22.8 14 Norte 38 Norte 0 -- -- 36
2019-05-26 18:00:00 23.4 19 Norte 40 Norte 0 -- -- 35
2019-05-26 17:00:00 24.6 6 Este 31 Norte 0 -- -- 36
2019-05-26 16:00:00 23.3 12 Norte 26 Norte 0 -- -- 37
2019-05-26 15:00:00 23.9 12 Norte 32 Norte 0 -- -- 38
2019-05-26 14:00:00 23.4 6 Sur 14 Este 0 -- -- 35
2019-05-26 13:00:00 22.2 8 Sudeste 17 Sudeste 0 -- -- 36
2019-05-26 12:00:00 20.5 7 Sudeste 15 Sudeste 0 -- -- 42
2019-05-26 11:00:00 18.3 6 Este 13 Este 0 -- -- 46
2019-05-26 10:00:00 15.8 4 Sur 9 Este 0 -- -- 61
2019-05-26 09:00:00 12.4 4 Este 10 Este 0 -- -- 69
2019-05-26 08:00:00 9.6 4 Norte 10 Norte 0 -- -- 79
2019-05-26 07:00:00 8.3 5 Norte 10 Norte 0 -- -- 80
2019-05-26 06:00:00 8.8 4 Noroeste 12 Norte 0 -- -- 78
2019-05-26 05:00:00 9.6 2 Nordeste 8 Norte 0 -- -- 74
2019-05-26 04:00:00 10.1 6 Norte 12 Norte 0 -- -- 73
2019-05-26 03:00:00 11.2 2 Oeste 8 Oeste 0 -- -- 66
2019-05-26 02:00:00 12.4 7 Oeste 17 Oeste 0 -- -- 63
2019-05-26 01:00:00 14 10 Oeste 15 Oeste 0 -- -- 56
2019-05-26 00:00:00 15.5 5 Norte 30 Norte 0 -- -- 48
2019-05-25 23:00:00 16.8 18 Noroeste 40 Norte 0 -- -- 44
2019-05-25 22:00:00 17 20 Norte 43 Norte 0 -- -- 44
2019-05-25 21:00:00 18.2 25 Norte 49 Norte 0 -- -- 43
2019-05-25 20:00:00 20.3 30 Norte 44 Norte 0 -- -- 42
2019-05-25 19:00:00 21.3 24 Norte 39 Norte 0 -- -- 39
2019-05-25 18:00:00 22.1 23 Norte 39 Norte 0 -- -- 40
2019-05-25 17:00:00 22.6 19 Norte 33 Norte 0 -- -- 41
2019-05-25 16:00:00 23.4 19 Norte 34 Norte 0 -- -- 40
2019-05-25 15:00:00 23.1 19 Norte 37 Norte 0 -- -- 41
2019-05-25 14:00:00 23.1 14 Norte 37 Norte 0 -- -- 41
2019-05-25 13:00:00 23.3 12 Norte 40 Norte 0 -- -- 43
2019-05-25 12:00:00 22.3 8 Norte 26 Nordeste 0 -- -- 43
2019-05-25 11:00:00 19.5 7 Sudeste 15 Sudeste 0 -- -- 57
2019-05-25 10:00:00 15.5 0 Calma 13 Este 0 -- -- 68
2019-05-25 09:00:00 13.7 4 Sudoeste 10 Nordeste 0 -- -- 76
2019-05-25 08:00:00 10.7 2 Oeste 9 Noroeste 0 -- -- 93
2019-05-25 07:00:00 10 3 Noroeste 10 Oeste 0 -- -- 95
2019-05-25 06:00:00 10.2 4 Nordeste 14 Oeste 0 -- -- 95
2019-05-25 05:00:00 10.3 8 Oeste 16 Oeste 0 -- -- 92
2019-05-25 04:00:00 10.9 8 Oeste 12 Oeste 0 -- -- 93
2019-05-25 03:00:00 11.7 0 Calma 10 Oeste 0 -- -- 87
2019-05-25 02:00:00 11.5 7 Oeste 9 Oeste 0 -- -- 90
2019-05-25 01:00:00 11.9 6 Oeste 10 Oeste 0 -- -- 93
2019-05-25 00:00:00 13.2 2 Este 11 Sur 0 -- -- 91
2019-05-24 23:00:00 13.9 10 Sudeste 18 Sudeste 0 -- -- 88
2019-05-24 22:00:00 14.7 13 Sudeste 20 Sudeste 0 -- -- 84
2019-05-24 21:00:00 15.9 14 Sudeste 22 Sudeste 0 -- -- 81
2019-05-24 20:00:00 17 16 Sudeste 22 Sudeste 0 -- -- 75
2019-05-24 19:00:00 18.3 11 Sudeste 27 Sudeste 0 -- -- 70
2019-05-24 18:00:00 17.5 18 Sudeste 24 Sudeste 0 -- -- 70
2019-05-24 17:00:00 18.2 15 Sudeste 20 Sudeste 0 -- -- 66
2019-05-24 16:00:00 17.5 9 Sudeste 13 Sudeste 0 -- -- 67
2019-05-24 15:00:00 17.5 12 Sudeste 16 Sudeste 0 -- -- 66
2019-05-24 14:00:00 17.4 9 Sudeste 13 Sudeste 0 -- -- 77
2019-05-24 13:00:00 16.4 5 Este 11 Este 0 -- -- 82
2019-05-24 12:00:00 15.1 2 Este 6 Nordeste 0 -- -- 85
2019-05-24 11:00:00 14.2 0 Calma 6 Sur 0 -- -- 90
2019-05-24 10:00:00 13.3 2 Sudoeste 5 Sudoeste 0.2 -- -- 94
2019-05-24 09:00:00 12.7 2 Noroeste 8 Oeste 1.4 -- -- 95
2019-05-24 08:00:00 12.6 5 Noroeste 9 Oeste 1.2 -- -- 97
2019-05-24 07:00:00 12.6 4 Noroeste 14 Oeste 1.2 -- -- 95
2019-05-24 06:00:00 12.8 7 Oeste 18 Noroeste 4.4 -- -- 95
2019-05-24 05:00:00 13.9 9 Oeste 19 Oeste 1.8 -- -- 86
2019-05-24 04:00:00 15.2 11 Oeste 15 Oeste 0 -- -- 73
2019-05-24 03:00:00 16.4 6 Noroeste 13 Noroeste 0 -- -- 63
2019-05-24 02:00:00 17.5 3 Este 15 Sudoeste 0 -- -- 58
2019-05-24 01:00:00 17.6 13 Sudoeste 20 Oeste 0 -- -- 57
2019-05-24 00:00:00 18.3 18 Oeste 27 Noroeste 0 -- -- 54
2019-05-23 23:00:00 19.4 15 Oeste 22 Noroeste 0 -- -- 52
2019-05-23 22:00:00 20.3 13 Noroeste 22 Noroeste 0 -- -- 50
2019-05-23 21:00:00 21.2 19 Noroeste 44 Noroeste 0 -- -- 49
2019-05-23 20:00:00 23.6 9 Noroeste 14 Oeste 0 -- -- 45
2019-05-23 19:00:00 24.8 7 Este 23 Sudeste 0 -- -- 46
2019-05-23 18:00:00 24.4 16 Sudeste 30 Sudeste 0 -- -- 44
2019-05-23 17:00:00 24.8 15 Sudeste 21 Sudeste 0 -- -- 45
2019-05-23 16:00:00 25.7 14 Sudeste 20 Sudeste 0 -- -- 38
2019-05-23 15:00:00 25.5 13 Sudeste 23 Sudeste 0 -- -- 42
2019-05-23 14:00:00 24.3 13 Sudeste 21 Sudeste 0 -- -- 43
2019-05-23 13:00:00 23.8 11 Sudeste 15 Sudeste 0 -- -- 41
2019-05-23 12:00:00 22.2 12 Sudeste 17 Sudeste 0 -- -- 46
2019-05-23 11:00:00 19.8 6 Sudeste 12 Este 0 -- -- 54
2019-05-23 10:00:00 17.1 3 Sudoeste 8 Sudeste 0 -- -- 60
2019-05-23 09:00:00 13.4 3 Noroeste 11 Norte 0 -- -- 73
2019-05-23 08:00:00 10.6 2 Nordeste 9 Noroeste 0 -- -- 79
2019-05-23 07:00:00 9.1 6 Noroeste 14 Norte 0 -- -- 82
2019-05-23 06:00:00 10 10 Norte 15 Norte 0 -- -- 78
2019-05-23 05:00:00 10.4 9 Norte 14 Noroeste 0 -- -- 77
2019-05-23 04:00:00 10.7 9 Noroeste 14 Noroeste 0 -- -- 75
2019-05-23 03:00:00 11.2 10 Noroeste 17 Noroeste 0 -- -- 73
2019-05-23 02:00:00 11.8 7 Noroeste 15 Norte 0 -- -- 70
2019-05-23 01:00:00 13.2 8 Noroeste 14 Norte 0 -- -- 65
2019-05-23 00:00:00 14.1 7 Noroeste 11 Oeste 0 -- -- 63
2019-05-22 23:00:00 15.9 8 Noroeste 14 Oeste 0 -- -- 55
2019-05-22 22:00:00 18.6 6 Norte 15 Nordeste 0 -- -- 47
2019-05-22 21:00:00 19.9 11 Sudeste 19 Sur 0 -- -- 43
2019-05-22 20:00:00 21.3 14 Sudeste 23 Sudeste 0 -- -- 36
2019-05-22 19:00:00 22.6 19 Sudeste 28 Sudeste 0 -- -- 39
2019-05-22 18:00:00 23 19 Sudeste 24 Sudeste 0 -- -- 40
2019-05-22 17:00:00 23 21 Sudeste 27 Sudeste 0 -- -- 41
2019-05-22 16:00:00 23.3 18 Sudeste 24 Sudeste 0 -- -- 41
2019-05-22 15:00:00 23 17 Sudeste 23 Sudeste 0 -- -- 43
2019-05-22 14:00:00 22.3 14 Sudeste 20 Sudeste 0 -- -- 46
2019-05-22 13:00:00 21.4 8 Sudeste 17 Sudeste 0 -- -- 48
2019-05-22 12:00:00 20.1 11 Sudeste 15 Sudeste 0 -- -- 50
2019-05-22 11:00:00 18.1 3 Sudoeste 8 Sudoeste 0 -- -- 60
2019-05-22 10:00:00 14.8 2 Oeste 6 Sudoeste 0 -- -- 65
2019-05-22 09:00:00 12.1 3 Oeste 6 Oeste 0 -- -- 79
2019-05-22 08:00:00 8.9 3 Noroeste 9 Oeste 0 -- -- 89
2019-05-22 07:00:00 8 5 Oeste 10 Oeste 0 -- -- 90
2019-05-22 06:00:00 8.9 6 Noroeste 11 Noroeste 0 -- -- 88
2019-05-22 05:00:00 9.5 4 Noroeste 13 Noroeste 0 -- -- 86
2019-05-22 04:00:00 10 9 Oeste 14 Oeste 0 -- -- 83
2019-05-22 03:00:00 10.6 8 Noroeste 13 Noroeste 0 -- -- 82
2019-05-22 02:00:00 11.9 6 Noroeste 10 Oeste 0 -- -- 78
2019-05-22 01:00:00 13 4 Oeste 13 Norte 0 -- -- 73
2019-05-22 00:00:00 14 8 Noroeste 15 Noroeste 0 -- -- 67